Time;durP1;ratioP1;P1;durP2;ratioP2;P2;SDS_P1;SDS_P2;PMS_P1;PMS_P2;Temp;Humidity;BMP_temperature;BMP_pressure;BME280_temperature;BME280_humidity;BME280_pressure;Samples;Min_cycle;Max_cycle;Signal;HPM_P1;HPM_P2
2024/01/17 00:05:06;;;;;;;9.83;6.67;;;1.70;82.00;;;;;;10378029;28;20223;-64
2024/01/17 00:10:10;;;;;;;10.50;6.57;;;1.70;82.20;;;;;;10387154;28;20269;-63
2024/01/17 00:15:13;;;;;;;10.27;5.93;;;1.70;81.80;;;;;;10384155;28;20442;-63
2024/01/17 00:20:18;;;;;;;9.53;6.13;;;1.60;81.90;;;;;;10370197;28;20199;-63
2024/01/17 00:25:22;;;;;;;10.30;6.13;;;1.60;81.60;;;;;;10383747;28;20255;-64
2024/01/17 00:30:26;;;;;;;11.40;6.20;;;1.60;82.40;;;;;;10380132;28;20203;-64
2024/01/17 00:35:31;;;;;;;11.93;6.53;;;1.60;81.40;;;;;;10380446;28;20225;-63
2024/01/17 00:40:34;;;;;;;14.40;6.60;;;1.60;81.30;;;;;;10388432;28;20725;-63
2024/01/17 00:45:39;;;;;;;10.70;6.70;;;1.60;81.50;;;;;;10387972;28;20227;-63
2024/01/17 00:50:44;;;;;;;14.27;6.33;;;1.60;81.40;;;;;;10392864;28;20200;-63
2024/01/17 00:55:47;;;;;;;11.47;6.50;;;1.60;81.40;;;;;;10389570;28;20220;-63
2024/01/17 01:00:51;;;;;;;9.97;6.30;;;1.60;81.20;;;;;;10392887;28;20204;-63
2024/01/17 01:05:56;;;;;;;11.20;6.63;;;1.60;81.20;;;;;;10388056;28;20278;-63
2024/01/17 01:10:59;;;;;;;10.00;6.43;;;1.50;81.10;;;;;;10400041;28;20271;-63
2024/01/17 01:16:04;;;;;;;8.67;5.90;;;1.60;81.10;;;;;;10386040;28;20338;-64
2024/01/17 01:21:09;;;;;;;9.77;6.63;;;1.50;81.50;;;;;;10380889;28;20334;-65
2024/01/17 01:26:14;;;;;;;9.67;6.00;;;1.50;81.20;;;;;;10379848;28;20226;-65
2024/01/17 01:31:18;;;;;;;10.93;6.30;;;1.40;81.20;;;;;;10384358;28;20208;-64
2024/01/17 01:36:23;;;;;;;8.30;5.93;;;1.40;81.30;;;;;;10380075;28;20290;-65
2024/01/17 01:41:27;;;;;;;11.37;6.20;;;1.50;81.10;;;;;;10386492;28;20205;-65
2024/01/17 01:46:32;;;;;;;9.73;6.83;;;1.40;81.30;;;;;;10386205;28;20235;-65
2024/01/17 01:51:38;;;;;;;10.23;6.90;;;1.40;81.70;;;;;;10377662;28;20250;-65
2024/01/17 01:56:42;;;;;;;12.60;7.43;;;1.40;81.50;;;;;;10384122;28;20708;-65
2024/01/17 02:01:46;;;;;;;8.93;6.33;;;1.30;81.70;;;;;;10386754;28;20199;-65
2024/01/17 02:06:53;;;;;;;9.47;6.40;;;1.30;81.60;;;;;;10381119;28;20260;-65
2024/01/17 02:11:57;;;;;;;8.60;5.77;;;1.30;81.40;;;;;;10382111;28;20209;-65
2024/01/17 02:17:01;;;;;;;8.77;5.80;;;1.30;81.50;;;;;;10387471;28;20213;-65
2024/01/17 02:22:06;;;;;;;9.73;5.80;;;1.30;81.30;;;;;;10383133;28;20677;-65
2024/01/17 02:27:11;;;;;;;8.00;5.43;;;1.30;81.10;;;;;;10389613;28;20285;-64
2024/01/17 02:32:15;;;;;;;8.93;5.07;;;1.30;81.00;;;;;;10380320;28;20236;-65
2024/01/17 02:37:18;;;;;;;10.17;5.70;;;1.30;80.60;;;;;;10384512;28;20266;-64
2024/01/17 02:42:23;;;;;;;8.10;5.77;;;1.30;80.60;;;;;;10376799;28;20258;-65
2024/01/17 02:47:26;;;;;;;9.13;6.30;;;1.30;80.60;;;;;;10380213;28;20248;-65
2024/01/17 02:52:34;;;;;;;7.70;5.47;;;1.20;80.00;;;;;;10380148;28;20608;-65
2024/01/17 02:57:39;;;;;;;9.47;5.97;;;1.20;80.30;;;;;;10378195;28;20207;-65
2024/01/17 03:02:42;;;;;;;10.80;5.93;;;1.20;80.70;;;;;;10378282;28;20601;-65
2024/01/17 03:07:46;;;;;;;9.17;5.70;;;1.20;80.00;;;;;;10378858;28;20251;-65
2024/01/17 03:12:51;;;;;;;8.93;5.83;;;1.20;80.00;;;;;;10377876;28;20282;-65
2024/01/17 03:17:55;;;;;;;8.93;5.60;;;1.20;80.20;;;;;;10382417;28;20209;-65
2024/01/17 03:22:59;;;;;;;9.50;5.97;;;1.10;80.00;;;;;;10378019;28;20243;-65
2024/01/17 03:28:04;;;;;;;9.03;5.67;;;1.10;80.70;;;;;;10380529;28;20258;-64
2024/01/17 03:33:08;;;;;;;7.93;5.93;;;1.10;80.10;;;;;;10380491;28;20267;-65
2024/01/17 03:38:11;;;;;;;10.57;6.23;;;1.10;80.00;;;;;;10381705;28;20204;-68
2024/01/17 03:43:16;;;;;;;9.10;5.90;;;1.10;80.10;;;;;;10382426;28;20228;-67
2024/01/17 03:48:20;;;;;;;10.63;6.03;;;1.10;80.20;;;;;;10373672;28;20654;-69
2024/01/17 03:53:24;;;;;;;10.07;6.10;;;1.10;80.00;;;;;;10376266;28;20220;-68
2024/01/17 03:58:28;;;;;;;9.23;6.00;;;1.20;80.30;;;;;;10378350;28;20574;-67
2024/01/17 04:03:36;;;;;;;9.77;5.80;;;1.10;80.00;;;;;;10378518;28;20244;-68
2024/01/17 04:08:39;;;;;;;10.23;5.90;;;1.10;80.10;;;;;;10375943;28;20585;-67
2024/01/17 04:13:44;;;;;;;10.47;6.70;;;1.10;80.10;;;;;;10385202;28;20222;-69
2024/01/17 04:18:48;;;;;;;13.43;7.07;;;1.10;80.50;;;;;;10380279;28;20226;-67
2024/01/17 04:23:52;;;;;;;12.83;6.80;;;1.10;80.30;;;;;;10385288;28;20285;-65
2024/01/17 04:28:57;;;;;;;9.63;6.67;;;1.10;80.00;;;;;;10396353;28;21608;-67
2024/01/17 04:34:02;;;;;;;10.87;6.57;;;1.10;80.30;;;;;;10385657;28;20235;-68
2024/01/17 04:39:08;;;;;;;8.87;6.53;;;1.10;80.30;;;;;;10387409;28;20200;-68
2024/01/17 04:44:13;;;;;;;11.87;7.07;;;1.10;80.20;;;;;;10378974;28;20212;-68
2024/01/17 04:49:17;;;;;;;10.23;6.50;;;1.20;80.30;;;;;;10388911;28;20228;-68
2024/01/17 04:54:21;;;;;;;13.23;6.93;;;1.20;80.40;;;;;;10384826;28;20289;-66
2024/01/17 04:59:27;;;;;;;10.87;7.33;;;1.20;80.10;;;;;;10384102;28;20197;-68
2024/01/17 05:04:30;;;;;;;10.50;7.20;;;1.20;80.00;;;;;;10388699;28;20231;-70
2024/01/17 05:09:35;;;;;;;10.20;6.93;;;1.20;79.90;;;;;;10386872;28;20240;-67
2024/01/17 05:14:41;;;;;;;11.00;7.07;;;1.20;80.10;;;;;;10385503;28;20229;-67
2024/01/17 05:19:44;;;;;;;12.17;7.50;;;1.20;79.80;;;;;;10386949;28;20196;-67
2024/01/17 05:24:48;;;;;;;10.43;7.17;;;1.20;80.10;;;;;;10382301;28;20239;-69
2024/01/17 05:29:53;;;;;;;11.83;7.57;;;1.20;80.00;;;;;;10386332;28;20219;-68
2024/01/17 05:34:57;;;;;;;13.13;8.07;;;1.20;80.00;;;;;;10417782;23;20255;-66
2024/01/17 05:40:00;;;;;;;16.13;8.33;;;1.20;79.90;;;;;;10402430;28;20200;-65
2024/01/17 05:45:07;;;;;;;12.00;7.80;;;1.20;79.90;;;;;;10401382;28;20246;-66
2024/01/17 05:50:12;;;;;;;14.20;8.80;;;1.20;80.10;;;;;;10397521;28;20251;-66
2024/01/17 05:55:17;;;;;;;14.17;8.50;;;1.10;79.80;;;;;;10399320;28;20216;-64
2024/01/17 06:00:22;;;;;;;14.55;10.20;;;1.10;79.70;;;;;;10398451;28;20446;-65
2024/01/17 06:05:25;;;;;;;13.87;8.27;;;1.20;79.60;;;;;;10401274;28;20244;-66
2024/01/17 06:10:29;;;;;;;14.43;9.23;;;1.20;79.30;;;;;;10397744;28;20717;-66
2024/01/17 06:15:34;;;;;;;12.10;8.10;;;1.20;79.20;;;;;;10394326;28;20244;-67
2024/01/17 06:20:38;;;;;;;12.27;8.03;;;1.20;78.80;;;;;;10394976;28;20199;-66
2024/01/17 06:25:41;;;;;;;11.00;8.10;;;1.20;78.90;;;;;;10391175;28;21647;-66
2024/01/17 06:30:46;;;;;;;15.50;9.77;;;1.20;79.10;;;;;;10392492;28;20201;-66
2024/01/17 06:35:50;;;;;;;14.30;8.60;;;1.20;78.70;;;;;;10398159;28;20231;-66
2024/01/17 06:40:54;;;;;;;13.43;8.43;;;1.20;78.70;;;;;;10411694;28;20664;-66
2024/01/17 06:45:59;;;;;;;15.90;9.00;;;1.20;78.60;;;;;;10394467;28;20220;-66
2024/01/17 06:51:02;;;;;;;13.93;8.50;;;1.20;78.80;;;;;;10394502;28;20773;-67
2024/01/17 06:56:07;;;;;;;13.73;8.10;;;1.20;78.80;;;;;;10393027;28;20216;-66
2024/01/17 07:01:12;;;;;;;13.93;8.27;;;1.20;78.90;;;;;;10400593;28;20212;-66
2024/01/17 07:06:15;;;;;;;13.20;7.80;;;1.20;78.90;;;;;;10400972;28;20221;-65
2024/01/17 07:11:19;;;;;;;9.93;6.90;;;1.20;79.10;;;;;;10400041;28;20648;-59
2024/01/17 07:16:24;;;;;;;12.03;7.87;;;1.30;78.90;;;;;;10405421;28;20270;-63
2024/01/17 07:21:28;;;;;;;11.83;7.90;;;1.30;78.90;;;;;;10397934;28;20655;-64
2024/01/17 07:26:32;;;;;;;11.43;7.27;;;1.30;79.00;;;;;;10390620;28;20286;-68
2024/01/17 07:31:38;;;;;;;11.17;7.30;;;1.30;78.90;;;;;;10390498;28;20224;-67
2024/01/17 07:36:43;;;;;;;14.20;7.77;;;1.30;78.90;;;;;;10389984;28;20766;-67
2024/01/17 07:41:47;;;;;;;13.33;8.33;;;1.40;78.90;;;;;;10395349;28;20278;-65
2024/01/17 07:46:53;;;;;;;13.23;7.47;;;1.40;78.80;;;;;;10389879;28;20262;-66
2024/01/17 07:51:57;;;;;;;12.83;6.77;;;1.40;78.70;;;;;;10397032;28;20208;-61
2024/01/17 07:57:00;;;;;;;13.20;8.98;;;1.40;78.60;;;;;;10394942;28;20449;-65
2024/01/17 08:02:06;;;;;;;9.27;6.33;;;1.70;77.60;;;;;;10395064;28;20257;-65
2024/01/17 08:07:09;;;;;;;9.90;6.53;;;1.70;78.00;;;;;;10394869;28;20260;-65
2024/01/17 08:12:13;;;;;;;12.63;6.73;;;1.70;78.20;;;;;;10396422;28;20253;-63
2024/01/17 08:17:18;;;;;;;11.30;6.17;;;1.70;78.50;;;;;;10387038;28;20225;-65
2024/01/17 08:22:22;;;;;;;11.37;6.70;;;1.80;78.40;;;;;;10394457;28;20227;-64
2024/01/17 08:27:26;;;;;;;10.60;6.20;;;1.80;78.30;;;;;;10395636;28;20227;-64
2024/01/17 08:32:30;;;;;;;11.10;6.43;;;1.80;78.70;;;;;;10397259;28;20204;-64
2024/01/17 08:37:35;;;;;;;7.83;5.83;;;1.80;77.90;;;;;;10400892;28;20277;-65
2024/01/17 08:42:39;;;;;;;9.83;6.37;;;1.90;78.30;;;;;;10395483;28;20199;-64
2024/01/17 08:47:44;;;;;;;10.07;6.63;;;1.90;77.50;;;;;;10397844;28;20282;-65
2024/01/17 08:52:49;;;;;;;9.70;6.67;;;1.90;78.10;;;;;;10396085;28;20199;-64
2024/01/17 08:57:52;;;;;;;11.13;7.20;;;2.00;77.30;;;;;;10400574;28;20657;-65
2024/01/17 09:02:57;;;;;;;11.83;6.80;;;2.00;77.20;;;;;;10406542;28;20212;-64
2024/01/17 09:08:01;;;;;;;10.03;6.87;;;2.10;77.20;;;;;;10402510;28;20306;-64
2024/01/17 09:13:05;;;;;;;10.70;7.23;;;2.20;77.40;;;;;;10406549;28;20254;-64
2024/01/17 09:18:10;;;;;;;10.20;6.57;;;2.30;77.50;;;;;;10399060;28;20223;-63
2024/01/17 09:23:14;;;;;;;10.10;6.47;;;2.30;77.10;;;;;;10401916;28;20245;-64
2024/01/17 09:28:18;;;;;;;10.70;6.40;;;2.40;77.20;;;;;;10403386;28;20701;-65
2024/01/17 09:33:23;;;;;;;12.23;6.63;;;2.40;76.60;;;;;;10402234;28;20204;-63
2024/01/17 09:38:30;;;;;;;11.20;6.30;;;2.50;78.50;;;;;;10402743;28;20286;-63
2024/01/17 09:43:34;;;;;;;9.90;7.07;;;2.60;77.10;;;;;;10402675;28;20643;-64
2024/01/17 09:48:40;;;;;;;9.73;6.20;;;2.70;76.90;;;;;;10400824;28;20223;-62
2024/01/17 09:53:46;;;;;;;10.83;6.40;;;2.70;77.80;;;;;;10402475;28;20548;-63
2024/01/17 09:58:52;;;;;;;10.20;7.13;;;2.80;76.40;;;;;;10410620;28;20266;-64
2024/01/17 10:04:00;;;;;;;12.80;7.13;;;2.80;76.80;;;;;;10406779;28;20205;-63
2024/01/17 10:09:04;;;;;;;13.83;7.07;;;2.80;76.70;;;;;;10405441;28;20220;-63
2024/01/17 10:14:08;;;;;;;11.60;6.83;;;2.80;76.50;;;;;;10396120;28;20235;-64
2024/01/17 10:19:15;;;;;;;11.10;7.20;;;2.90;76.50;;;;;;10401381;28;20278;-66
2024/01/17 10:24:20;;;;;;;14.60;6.90;;;2.90;76.20;;;;;;10389317;28;20916;-65
2024/01/17 10:29:24;;;;;;;12.35;7.30;;;2.90;76.10;;;;;;10398464;28;21000;-66
2024/01/17 10:34:29;;;;;;;11.33;7.30;;;3.00;76.20;;;;;;10404779;28;20249;-65
2024/01/17 10:39:34;;;;;;;11.77;6.50;;;3.00;75.80;;;;;;10396634;28;20227;-65
2024/01/17 10:44:37;;;;;;;10.40;6.83;;;3.00;75.80;;;;;;10402076;28;20217;-65
2024/01/17 10:49:43;;;;;;;10.30;6.67;;;3.10;75.80;;;;;;10402511;28;20261;-64
2024/01/17 10:54:51;;;;;;;10.37;6.80;;;3.10;76.70;;;;;;10398533;28;20273;-66
2024/01/17 10:59:57;;;;;;;10.83;6.83;;;3.10;76.10;;;;;;10400572;28;20262;-67
2024/01/17 11:05:06;;;;;;;11.37;6.83;;;3.20;76.00;;;;;;10397008;28;20294;-65
2024/01/17 11:10:11;;;;;;;10.97;6.70;;;3.20;75.70;;;;;;10397266;28;20350;-65
2024/01/17 11:15:15;;;;;;;12.80;7.10;;;3.20;76.30;;;;;;10396699;28;20261;-65
2024/01/17 11:20:20;;;;;;;13.23;6.90;;;3.20;75.90;;;;;;10397609;28;20727;-68
2024/01/17 11:25:30;;;;;;;14.33;7.47;;;3.30;75.90;;;;;;10395385;28;20221;-66
2024/01/17 11:30:47;;;;;;;10.90;6.77;;;3.30;76.10;;;;;;10393767;28;20661;-66
2024/01/17 11:35:53;;;;;;;14.87;7.40;;;3.30;76.10;;;;;;10403806;28;20240;-65
2024/01/17 11:41:00;;;;;;;11.03;7.07;;;3.40;76.30;;;;;;10398674;22;20249;-64
2024/01/17 11:46:06;;;;;;;12.57;8.13;;;3.40;76.60;;;;;;10359650;28;20200;-61
2024/01/17 11:51:16;;;;;;;22.17;10.77;;;3.40;76.50;;;;;;10363542;28;20374;-64
2024/01/17 11:56:21;;;;;;;19.83;10.50;;;3.40;76.20;;;;;;10364305;28;20839;-67
2024/01/17 12:01:40;;;;;;;13.37;8.70;;;3.40;76.40;;;;;;10358804;28;20208;-67
2024/01/17 12:06:49;;;;;;;15.20;9.17;;;3.50;76.20;;;;;;10360343;28;20221;-62
2024/01/17 12:11:53;;;;;;;18.63;10.80;;;3.50;76.40;;;;;;10362549;28;20232;-61
2024/01/17 12:16:57;;;;;;;13.10;9.80;;;3.40;76.40;;;;;;10356851;28;20201;-63
2024/01/17 12:22:02;;;;;;;13.07;8.50;;;3.40;76.30;;;;;;10364159;28;20226;-63
2024/01/17 12:27:06;;;;;;;15.47;9.13;;;3.40;76.60;;;;;;10362890;28;20228;-63
2024/01/17 12:32:10;;;;;;;15.00;8.03;;;3.40;76.10;;;;;;10352589;28;20324;-64
2024/01/17 12:37:16;;;;;;;15.47;8.50;;;3.40;76.40;;;;;;10362235;28;20204;-60
2024/01/17 12:42:19;;;;;;;12.27;8.47;;;3.40;76.30;;;;;;10363388;28;20767;-65
2024/01/17 12:47:23;;;;;;;12.90;9.03;;;3.40;76.50;;;;;;10371238;28;20200;-62
2024/01/17 12:52:28;;;;;;;15.60;8.70;;;3.40;76.50;;;;;;10364399;28;20704;-61
2024/01/17 12:57:32;;;;;;;17.03;9.07;;;3.40;76.60;;;;;;10366052;28;20299;-61
2024/01/17 13:02:36;;;;;;;13.87;8.53;;;3.40;77.40;;;;;;10356586;28;20701;-61
2024/01/17 13:07:41;;;;;;;16.40;9.07;;;3.40;77.00;;;;;;10361166;28;20255;-62
2024/01/17 13:12:46;;;;;;;16.50;9.20;;;3.40;77.20;;;;;;10366797;28;20594;-60
2024/01/17 13:17:50;;;;;;;16.07;9.27;;;3.40;77.10;;;;;;10369564;28;20259;-63
2024/01/17 13:22:55;;;;;;;14.10;10.07;;;3.40;77.30;;;;;;10363371;28;20273;-63
2024/01/17 13:28:00;;;;;;;11.53;9.13;;;3.40;77.90;;;;;;10365584;28;20206;-64
2024/01/17 13:33:06;;;;;;;17.23;9.37;;;3.40;79.30;;;;;;10363806;28;20256;-65
2024/01/17 13:38:11;;;;;;;16.47;10.13;;;3.40;80.10;;;;;;10366302;28;20290;-62
2024/01/17 13:43:15;;;;;;;14.67;9.73;;;3.30;81.20;;;;;;10361645;28;20257;-62
2024/01/17 13:48:18;;;;;;;19.43;10.97;;;3.30;81.70;;;;;;10362718;28;20920;-63
2024/01/17 13:53:32;;;;;;;18.20;12.13;;;3.20;82.10;;;;;;10358054;28;20226;-63
2024/01/17 13:58:37;;;;;;;19.03;12.30;;;3.20;82.80;;;;;;10366637;28;20624;-63
2024/01/17 14:03:40;;;;;;;16.87;10.73;;;3.10;83.70;;;;;;10358389;28;20219;-61
2024/01/17 14:08:45;;;;;;;19.13;12.93;;;3.10;83.90;;;;;;10357529;28;20216;-62
2024/01/17 14:13:49;;;;;;;19.03;13.93;;;3.20;84.90;;;;;;10364202;28;20282;-65
2024/01/17 14:18:53;;;;;;;20.47;13.63;;;3.20;85.50;;;;;;10364681;28;20567;-62
2024/01/17 14:23:58;;;;;;;22.07;13.33;;;3.10;85.30;;;;;;10358355;28;20238;-64
2024/01/17 14:29:02;;;;;;;20.60;12.97;;;3.10;85.20;;;;;;10366245;28;20264;-64
2024/01/17 14:34:09;;;;;;;19.23;12.87;;;3.10;85.80;;;;;;10369610;28;20200;-64
2024/01/17 14:39:20;;;;;;;23.93;13.40;;;3.10;86.00;;;;;;10367840;28;20221;-63
2024/01/17 14:44:24;;;;;;;20.50;13.50;;;3.10;86.10;;;;;;10367974;28;20204;-64
2024/01/17 14:49:27;;;;;;;19.80;12.70;;;3.10;87.20;;;;;;10367290;28;20601;-65
2024/01/17 14:54:32;;;;;;;19.67;14.00;;;3.10;86.80;;;;;;10363897;28;20204;-65
2024/01/17 14:59:37;;;;;;;17.40;13.47;;;3.00;86.60;;;;;;10359074;28;20270;-63
2024/01/17 15:04:41;;;;;;;20.70;13.73;;;3.00;86.80;;;;;;10359865;28;20284;-62
2024/01/17 15:09:47;;;;;;;22.20;15.27;;;2.90;87.60;;;;;;10361733;28;20281;-64
2024/01/17 15:14:52;;;;;;;19.23;14.30;;;2.90;87.90;;;;;;10366744;28;20571;-64
2024/01/17 15:19:56;;;;;;;22.40;14.03;;;2.90;88.30;;;;;;10365611;28;20220;-62
2024/01/17 15:25:02;;;;;;;17.43;13.17;;;2.90;88.00;;;;;;10361907;28;20204;-64
2024/01/17 15:30:07;;;;;;;20.83;12.80;;;2.90;88.20;;;;;;10366632;28;20743;-63
2024/01/17 15:35:13;;;;;;;20.63;13.63;;;2.80;87.90;;;;;;10366292;28;20247;-64
2024/01/17 15:40:18;;;;;;;16.90;12.23;;;2.80;88.00;;;;;;10363586;28;20264;-64
2024/01/17 15:45:22;;;;;;;20.30;12.63;;;2.80;88.00;;;;;;10362367;28;20236;-63
2024/01/17 15:50:26;;;;;;;21.23;13.17;;;2.80;88.40;;;;;;10365619;28;20285;-63
2024/01/17 15:55:31;;;;;;;21.87;13.20;;;2.80;87.70;;;;;;10363825;28;20204;-64
2024/01/17 16:00:34;;;;;;;19.93;12.40;;;2.70;88.10;;;;;;10358115;28;20662;-64
2024/01/17 16:05:39;;;;;;;17.40;12.30;;;2.70;87.70;;;;;;10365557;28;20208;-63
2024/01/17 16:10:45;;;;;;;17.87;12.90;;;2.70;88.10;;;;;;10363906;28;20276;-62
2024/01/17 16:15:49;;;;;;;22.98;17.20;;;2.70;87.60;;;;;;10358003;28;20819;-63
2024/01/17 16:20:52;;;;;;;21.57;12.77;;;2.90;88.40;;;;;;10365595;28;20222;-64
2024/01/17 16:25:57;;;;;;;31.23;14.13;;;2.90;88.30;;;;;;10357914;28;20210;-63
2024/01/17 16:31:01;;;;;;;21.03;13.60;;;2.80;88.30;;;;;;10359239;28;20328;-63
2024/01/17 16:36:05;;;;;;;19.40;13.07;;;2.90;88.10;;;;;;10361816;28;20202;-63
2024/01/17 16:41:10;;;;;;;19.00;13.07;;;2.80;88.40;;;;;;10360495;28;20722;-65
2024/01/17 16:46:14;;;;;;;20.67;16.87;;;2.80;88.40;;;;;;10358043;28;20513;-62
2024/01/17 16:51:18;;;;;;;18.40;13.83;;;3.00;88.40;;;;;;10359653;28;20260;-61
2024/01/17 16:56:24;;;;;;;19.47;13.77;;;3.00;87.90;;;;;;10357406;28;20217;-62
2024/01/17 17:01:28;;;;;;;18.40;13.40;;;3.00;87.60;;;;;;10362088;28;20307;-63
2024/01/17 17:06:32;;;;;;;19.60;12.93;;;2.90;87.60;;;;;;10361299;28;20571;-61
2024/01/17 17:11:37;;;;;;;21.33;16.33;;;2.80;87.60;;;;;;10359754;28;20597;-62
2024/01/17 17:16:41;;;;;;;18.93;13.30;;;2.90;87.80;;;;;;10360091;28;20395;-66
2024/01/17 17:21:44;;;;;;;19.40;12.87;;;2.90;87.50;;;;;;10365064;28;20268;-61
2024/01/17 17:26:49;;;;;;;19.37;12.47;;;2.80;87.50;;;;;;10367670;28;20260;-62
2024/01/17 17:31:56;;;;;;;19.23;13.87;;;2.80;87.70;;;;;;10368574;28;20290;-63
2024/01/17 17:36:59;;;;;;;17.67;13.43;;;2.70;87.60;;;;;;10366557;28;20199;-63
2024/01/17 17:42:05;;;;;;;22.90;13.83;;;2.70;88.00;;;;;;10365214;28;20229;-61
2024/01/17 17:47:08;;;;;;;23.30;14.90;;;2.70;88.10;;;;;;10367793;28;20267;-61
2024/01/17 17:52:12;;;;;;;21.37;14.80;;;2.70;88.20;;;;;;10366130;28;20268;-63
2024/01/17 17:57:17;;;;;;;22.30;15.67;;;2.70;88.20;;;;;;10363933;28;20229;-63
2024/01/17 18:02:21;;;;;;;21.13;14.93;;;2.70;88.50;;;;;;10365596;28;20706;-63
2024/01/17 18:07:25;;;;;;;21.43;16.20;;;2.70;89.10;;;;;;10366145;28;20246;-63
2024/01/17 18:12:30;;;;;;;23.33;16.00;;;2.70;88.20;;;;;;10369605;28;20230;-64
2024/01/17 18:17:34;;;;;;;27.70;17.27;;;2.70;88.50;;;;;;10370939;28;20205;-60
2024/01/17 18:22:37;;;;;;;22.80;16.87;;;2.70;88.50;;;;;;10369586;28;20703;-59
2024/01/17 18:27:42;;;;;;;22.00;15.73;;;2.70;88.60;;;;;;10365562;28;20235;-59
2024/01/17 18:32:46;;;;;;;21.17;15.63;;;2.70;88.40;;;;;;10366539;28;20230;-60
2024/01/17 18:37:51;;;;;;;25.00;16.37;;;2.70;88.80;;;;;;10359041;28;20252;-60
2024/01/17 18:42:55;;;;;;;26.43;17.23;;;2.70;88.90;;;;;;10367058;28;20228;-60
2024/01/17 18:47:59;;;;;;;27.57;16.97;;;2.70;88.80;;;;;;10369336;28;20212;-60
2024/01/17 18:53:03;;;;;;;28.50;17.07;;;2.70;88.70;;;;;;10363587;28;20620;-59
2024/01/17 18:58:12;;;;;;;25.90;16.47;;;2.70;89.40;;;;;;10365726;28;20239;-61
2024/01/17 19:03:15;;;;;;;22.10;16.43;;;2.70;88.70;;;;;;10369426;28;20315;-60
2024/01/17 19:08:19;;;;;;;26.03;16.63;;;2.70;88.70;;;;;;10368513;28;20213;-59
2024/01/17 19:13:24;;;;;;;24.97;16.70;;;2.70;89.40;;;;;;10368281;28;20855;-59
2024/01/17 19:18:28;;;;;;;22.67;15.53;;;2.70;89.60;;;;;;10367851;28;20204;-59
2024/01/17 19:23:31;;;;;;;24.53;16.17;;;2.70;89.40;;;;;;10367403;28;20270;-59
2024/01/17 19:28:37;;;;;;;23.80;16.77;;;2.70;90.00;;;;;;10369147;28;20274;-61
2024/01/17 19:33:40;;;;;;;23.93;17.83;;;2.70;89.40;;;;;;10361427;28;20754;-59
2024/01/17 19:38:44;;;;;;;25.07;17.53;;;2.70;88.90;;;;;;10367175;28;20251;-59
2024/01/17 19:43:49;;;;;;;25.63;18.40;;;2.70;88.90;;;;;;10367110;28;20208;-60
2024/01/17 19:48:54;;;;;;;28.23;19.47;;;2.60;88.80;;;;;;10365844;28;20278;-60
2024/01/17 19:53:58;;;;;;;26.23;19.47;;;2.60;89.10;;;;;;10366608;28;20628;-65
2024/01/17 19:59:03;;;;;;;27.40;18.93;;;2.60;89.10;;;;;;10365885;28;20253;-66
2024/01/17 20:04:06;;;;;;;28.70;19.40;;;2.60;89.00;;;;;;10370669;28;20207;-63
2024/01/17 20:09:10;;;;;;;29.73;20.17;;;2.60;89.00;;;;;;10370398;28;20255;-62
2024/01/17 20:14:15;;;;;;;29.43;20.50;;;2.60;89.20;;;;;;10362431;28;20274;-62
2024/01/17 20:19:19;;;;;;;29.10;20.63;;;2.60;89.30;;;;;;10370596;28;20289;-65
2024/01/17 20:24:23;;;;;;;34.57;21.30;;;2.60;89.20;;;;;;10367050;28;20208;-65
2024/01/17 20:29:28;;;;;;;31.17;20.87;;;2.60;89.20;;;;;;10366418;28;20658;-61
2024/01/17 20:34:31;;;;;;;35.50;21.47;;;2.60;89.10;;;;;;10359966;28;20286;-60
2024/01/17 20:39:35;;;;;;;31.47;21.47;;;2.60;89.50;;;;;;10364570;28;20279;-63
2024/01/17 20:44:41;;;;;;;33.40;22.33;;;2.60;89.30;;;;;;10361575;28;20255;-61
2024/01/17 20:49:45;;;;;;;32.97;20.77;;;2.60;89.30;;;;;;10365015;28;20696;-66
2024/01/17 20:54:49;;;;;;;31.00;20.10;;;2.60;89.70;;;;;;10356700;28;20723;-67
2024/01/17 20:59:54;;;;;;;32.87;20.47;;;2.60;89.30;;;;;;10368726;28;20284;-64
2024/01/17 21:04:57;;;;;;;30.87;18.90;;;2.50;89.40;;;;;;10368167;28;20234;-64
2024/01/17 21:10:01;;;;;;;31.80;21.47;;;2.50;89.60;;;;;;10367150;28;20224;-64
2024/01/17 21:15:08;;;;;;;29.93;18.97;;;2.60;89.70;;;;;;10369925;28;20775;-65
2024/01/17 21:20:11;;;;;;;32.67;20.10;;;2.60;89.80;;;;;;10368621;28;20708;-65
2024/01/17 21:25:15;;;;;;;29.20;20.43;;;2.60;90.00;;;;;;10367750;28;20195;-65
2024/01/17 21:30:20;;;;;;;28.30;18.90;;;2.60;89.90;;;;;;10369738;28;20631;-65
2024/01/17 21:35:24;;;;;;;27.87;19.30;;;2.60;89.90;;;;;;10369831;28;20906;-65
2024/01/17 21:40:27;;;;;;;23.60;15.83;;;2.60;89.80;;;;;;10367330;28;20778;-65
2024/01/17 21:45:32;;;;;;;26.27;17.17;;;2.60;89.40;;;;;;10367514;28;20200;-64
2024/01/17 21:50:36;;;;;;;29.67;19.40;;;2.60;88.80;;;;;;10369375;28;20228;-64
2024/01/17 21:55:39;;;;;;;26.87;18.13;;;2.50;89.10;;;;;;10371553;28;20564;-64
2024/01/17 22:00:44;;;;;;;23.87;16.23;;;2.50;89.00;;;;;;10370678;28;20239;-64
2024/01/17 22:05:48;;;;;;;23.93;16.83;;;2.50;89.10;;;;;;10368729;28;20242;-64
2024/01/17 22:10:52;;;;;;;26.13;16.63;;;2.50;89.10;;;;;;10371955;28;20683;-64
2024/01/17 22:15:57;;;;;;;25.93;16.30;;;2.40;88.90;;;;;;10371753;28;20226;-64
2024/01/17 22:21:02;;;;;;;23.93;16.10;;;2.40;88.60;;;;;;10364409;28;20565;-66
2024/01/17 22:26:06;;;;;;;22.60;15.77;;;2.40;89.00;;;;;;10360181;28;20246;-64
2024/01/17 22:31:14;;;;;;;19.67;15.27;;;2.40;89.20;;;;;;10363019;28;20246;-64
2024/01/17 22:36:21;;;;;;;23.83;15.63;;;2.30;88.80;;;;;;10369708;28;20228;-65
2024/01/17 22:41:25;;;;;;;24.80;15.87;;;2.30;88.80;;;;;;10367290;28;20267;-65
2024/01/17 22:46:30;;;;;;;20.17;14.60;;;2.30;88.90;;;;;;10366339;28;20200;-65
2024/01/17 22:51:34;;;;;;;19.70;14.63;;;2.30;88.80;;;;;;10365189;28;20715;-65
2024/01/17 22:56:37;;;;;;;24.23;15.77;;;2.30;88.60;;;;;;10360774;28;20316;-64
2024/01/17 23:01:43;;;;;;;23.90;15.37;;;2.30;88.80;;;;;;10365192;28;20224;-64
2024/01/17 23:06:47;;;;;;;21.87;15.33;;;2.30;89.00;;;;;;10362300;28;20198;-63
2024/01/17 23:11:50;;;;;;;22.43;15.63;;;2.30;89.10;;;;;;10364103;28;20818;-64
2024/01/17 23:16:55;;;;;;;21.50;14.73;;;2.30;88.80;;;;;;10364471;28;20696;-64
2024/01/17 23:21:59;;;;;;;21.03;14.50;;;2.30;88.20;;;;;;10362553;28;20270;-63
2024/01/17 23:27:03;;;;;;;19.43;14.87;;;2.40;87.60;;;;;;10363225;28;20200;-64
2024/01/17 23:32:08;;;;;;;19.60;14.37;;;2.40;87.70;;;;;;10364391;28;20293;-65
2024/01/17 23:37:13;;;;;;;21.47;15.47;;;2.40;87.90;;;;;;10359377;28;20204;-65
2024/01/17 23:42:16;;;;;;;20.23;15.30;;;2.40;87.90;;;;;;10362549;28;20285;-65
2024/01/17 23:47:22;;;;;;;20.40;14.87;;;2.40;87.40;;;;;;10362225;28;20762;-64
2024/01/17 23:52:25;;;;;;;23.73;15.77;;;2.40;87.20;;;;;;10360569;28;20221;-64
2024/01/17 23:57:29;;;;;;;23.67;15.70;;;2.40;87.30;;;;;;10361666;28;20261;-63
